Maitland, Florida
Current Conditions -  °F | °C
As of 3:53 PM on Thursday 23 Oct 2014 (Local Time) from KORL Reporting Station
Clear Clear  
Wind Chill: 80°   Ceiling: Unl
Heat Index: 80°   Visibility: 10mi
Dew Point: 55°   Wind: 10mph
Humidity: 42%   Direction: 50°NE
Pressure: 29.94"   Gusts: NA
Location:  28.63°N, 81.36°W
Report Text: KORL 231953Z 05009KT 10SM CLR 27/13 A2994 RMK AO2 SLP142 T02670128
Loading
Personal Weather Stations






























Interactive Weather Map
Tropical Storm Tracking
New forecast layout! Learn more

10-Day Weather Forecast

Advertisements
Track Severe Weather on mobile